Time;durP1;ratioP1;P1;durP2;ratioP2;P2;SDS_P1;SDS_P2;PMS_P1;PMS_P2;Temp;Humidity;BMP_temperature;BMP_pressure;BME280_temperature;BME280_humidity;BME280_pressure;Samples;Min_cycle;Max_cycle;Signal;HPM_P1;HPM_P2
2023/04/10 00:00:34;;;;;;;10.05;8.35;;;;;;;2.76;61.15;100707.28;1617094;87;21128;-64
2023/04/10 00:03:02;;;;;;;9.95;8.38;;;;;;;2.76;61.25;100704.70;1586940;88;21079;-62
2023/04/10 00:05:31;;;;;;;9.75;8.40;;;;;;;2.69;61.22;100702.99;1610295;87;21014;-63
2023/04/10 00:07:57;;;;;;;8.88;7.97;;;;;;;2.69;61.48;100700.41;1613012;87;21044;-63
2023/04/10 00:10:29;;;;;;;10.03;8.23;;;;;;;2.68;61.43;100708.98;1611339;87;21033;-63
2023/04/10 00:12:59;;;;;;;11.43;8.68;;;;;;;2.62;61.43;100705.13;1591756;88;20966;-64
2023/04/10 00:15:28;;;;;;;10.23;8.60;;;;;;;2.55;61.57;100695.24;1603169;87;21066;-63
2023/04/10 00:17:55;;;;;;;14.10;9.10;;;;;;;2.49;61.62;100690.48;1609262;88;21057;-64
2023/04/10 00:20:22;;;;;;;10.85;8.70;;;;;;;2.37;61.53;100690.91;1598509;87;20988;-62
2023/04/10 00:22:49;;;;;;;10.60;8.83;;;;;;;2.33;61.76;100699.50;1615808;86;21026;-63
2023/04/10 00:25:16;;;;;;;10.13;8.63;;;;;;;2.33;61.84;100690.91;1617936;86;21049;-63
2023/04/10 00:27:42;;;;;;;9.83;8.67;;;;;;;2.32;61.84;100692.61;1613752;86;21137;-64
2023/04/10 00:30:09;;;;;;;10.38;8.35;;;;;;;2.26;61.88;100692.59;1615959;87;21073;-66
2023/04/10 00:32:36;;;;;;;10.53;8.28;;;;;;;2.20;62.10;100688.30;1612313;86;20978;-63
2023/04/10 00:35:03;;;;;;;10.20;8.63;;;;;;;2.21;62.11;100694.30;1616628;86;21026;-63
2023/04/10 00:37:30;;;;;;;9.65;8.55;;;;;;;2.17;62.15;100697.73;1614861;86;21014;-63
2023/04/10 00:39:56;;;;;;;10.88;9.13;;;;;;;2.11;62.02;100698.59;1617223;86;21019;-65
2023/04/10 00:42:22;;;;;;;13.80;9.25;;;;;;;2.08;62.29;100692.57;1618606;86;20967;-63
2023/04/10 00:44:48;;;;;;;9.85;8.20;;;;;;;2.05;62.13;100689.98;1613928;86;21172;-63
2023/04/10 00:47:16;;;;;;;10.90;7.90;;;;;;;2.06;62.37;100695.56;1611477;86;21022;-64
2023/04/10 00:49:44;;;;;;;9.70;8.43;;;;;;;2.06;62.44;100692.55;1616288;86;21108;-63
2023/04/10 00:52:11;;;;;;;9.50;7.92;;;;;;;2.06;62.53;100692.55;1616252;86;20947;-65
2023/04/10 00:54:38;;;;;;;10.05;8.23;;;;;;;2.01;62.54;100689.95;1613858;86;21116;-66
2023/04/10 00:57:05;;;;;;;8.00;7.17;;;;;;;2.07;62.70;100691.69;1616663;86;21651;-64
2023/04/10 00:59:32;;;;;;;10.45;8.05;;;;;;;2.09;62.76;100694.28;1615160;86;21496;-63
2023/04/10 01:01:59;;;;;;;9.65;8.50;;;;;;;2.11;62.83;100695.16;1617123;86;20970;-63
2023/04/10 01:04:27;;;;;;;9.93;8.28;;;;;;;2.12;62.81;100691.70;1620777;86;20963;-63
2023/04/10 01:07:00;;;;;;;11.08;8.45;;;;;;;2.11;62.83;100692.58;1615923;86;20994;-63
2023/04/10 01:09:33;;;;;;;9.80;7.70;;;;;;;2.09;62.76;100694.28;1624090;86;21042;-63
2023/04/10 01:12:05;;;;;;;9.55;8.13;;;;;;;2.01;62.76;100695.10;1589812;88;21043;-64
2023/04/10 01:14:40;;;;;;;11.73;7.85;;;;;;;1.93;62.97;100692.07;1602524;88;21007;-63
2023/04/10 01:17:10;;;;;;;11.28;8.55;;;;;;;1.93;63.27;100694.25;1614200;86;21029;-63
2023/04/10 01:20:02;;;;;;;11.08;8.85;;;;;;;1.96;63.21;100694.25;1616378;86;21050;-68
2023/04/10 01:22:35;;;;;;;10.03;8.30;;;;;;;1.90;62.96;100696.78;1610960;86;21621;-66
2023/04/10 01:25:06;;;;;;;10.25;8.65;;;;;;;1.83;63.19;100696.34;1606974;87;21719;-64
2023/04/10 01:27:47;;;;;;;12.78;9.08;;;;;;;1.83;63.21;100701.49;1610243;87;21018;-64
2023/04/10 01:30:17;;;;;;;10.45;8.90;;;;;;;1.84;63.26;100699.34;1607076;87;21069;-64
2023/04/10 01:32:48;;;;;;;9.90;8.18;;;;;;;1.84;63.42;100692.90;1620422;86;20993;-65
2023/04/10 01:35:17;;;;;;;12.30;8.58;;;;;;;1.79;63.35;100693.30;1625419;86;21031;-63
2023/04/10 01:37:46;;;;;;;11.15;9.25;;;;;;;1.78;63.47;100699.32;1627311;86;21068;-64
2023/04/10 01:40:16;;;;;;;11.65;9.13;;;;;;;1.79;63.56;100694.59;1641554;85;21031;-63
2023/04/10 01:42:45;;;;;;;11.48;8.95;;;;;;;1.77;63.51;100704.05;1641881;85;21101;-64
2023/04/10 01:45:17;;;;;;;11.40;8.40;;;;;;;1.79;63.67;100697.16;1651390;85;21023;-64
2023/04/10 01:47:43;;;;;;;13.45;9.13;;;;;;;1.80;63.75;100701.48;1637990;85;21576;-65
2023/04/10 01:50:11;;;;;;;14.00;10.13;;;;;;;1.81;63.80;100696.75;1645160;85;21540;-68
2023/04/10 01:52:38;;;;;;;12.80;10.38;;;;;;;1.79;63.83;100694.59;1641917;84;21005;-63
2023/04/10 01:55:07;;;;;;;12.70;9.80;;;;;;;1.79;63.96;100681.72;1641288;85;21042;-63
2023/04/10 01:57:34;;;;;;;12.73;9.25;;;;;;;1.82;63.98;100686.91;1639412;85;21057;-67
2023/04/10 02:00:03;;;;;;;11.93;9.78;;;;;;;1.88;64.04;100681.77;1643345;85;21059;-64
2023/04/10 02:02:32;;;;;;;13.80;9.73;;;;;;;1.91;63.88;100683.06;1643376;85;21435;-64
2023/04/10 02:04:59;;;;;;;11.35;9.13;;;;;;;1.95;64.04;100682.20;1648614;85;21067;-65
2023/04/10 02:07:35;;;;;;;13.28;9.38;;;;;;;1.95;63.91;100682.20;1644347;85;20935;-64
2023/04/10 02:10:20;;;;;;;13.43;10.03;;;;;;;1.89;63.81;100682.19;1645269;85;21054;-64
2023/04/10 02:12:55;;;;;;;11.53;9.28;;;;;;;1.87;64.07;100683.89;1641335;85;21058;-63
2023/04/10 02:15:25;;;;;;;9.23;8.33;;;;;;;1.92;64.39;100684.78;1643250;85;21081;-65
2023/04/10 02:17:53;;;;;;;11.20;9.50;;;;;;;1.94;64.49;100688.23;1639558;85;21076;-63
2023/04/10 02:20:22;;;;;;;13.83;10.75;;;;;;;1.96;64.39;100677.52;1642058;85;21031;-63
2023/04/10 02:22:49;;;;;;;11.70;8.85;;;;;;;1.95;64.37;100679.63;1640613;85;21125;-65
2023/04/10 02:25:15;;;;;;;;;;;;;;;1.98;64.71;100671.91;1646248;85;21043;-64
2023/04/10 02:27:41;;;;;;;12.05;8.78;;;;;;;2.01;65.26;100671.92;1639484;85;20181;-63
2023/04/10 02:30:09;;;;;;;12.90;9.40;;;;;;;2.04;64.89;100667.64;1646064;85;21068;-64
2023/04/10 02:32:35;;;;;;;11.18;9.50;;;;;;;2.05;65.08;100671.95;1645736;85;21028;-63
2023/04/10 02:35:04;;;;;;;10.82;8.93;;;;;;;2.08;65.17;100671.96;1643196;85;21023;-65
2023/04/10 02:37:33;;;;;;;11.63;8.43;;;;;;;2.04;64.94;100662.48;1643831;85;21031;-63
2023/04/10 02:40:00;;;;;;;11.90;9.00;;;;;;;1.99;65.17;100675.38;1638497;85;21006;-64
2023/04/10 02:42:26;;;;;;;9.90;8.25;;;;;;;1.99;65.35;100671.08;1644594;85;21031;-64
2023/04/10 02:44:52;;;;;;;10.65;8.00;;;;;;;2.00;65.46;100667.63;1640233;85;21493;-64
2023/04/10 02:47:19;;;;;;;9.18;7.55;;;;;;;1.98;65.38;100666.77;1640587;85;21046;-67
2023/04/10 02:49:45;;;;;;;9.10;7.60;;;;;;;1.96;65.46;100668.50;1642500;85;21090;-63
2023/04/10 02:52:11;;;;;;;7.95;7.05;;;;;;;1.95;65.50;100673.63;1643087;85;21027;-63
2023/04/10 02:54:38;;;;;;;7.85;7.05;;;;;;;1.92;65.45;100679.62;1644015;85;20953;-64
2023/04/10 02:57:04;;;;;;;12.30;7.33;;;;;;;1.87;65.51;100674.88;1640461;85;21058;-63
2023/04/10 02:59:32;;;;;;;7.37;6.58;;;;;;;1.84;65.73;100671.01;1635881;85;21022;-64
2023/04/10 03:01:58;;;;;;;10.53;7.55;;;;;;;1.85;65.83;100671.47;1640532;85;21059;-63
2023/04/10 03:04:24;;;;;;;8.83;7.60;;;;;;;1.86;65.96;100674.46;1642329;85;20975;-63
2023/04/10 03:06:50;;;;;;;10.58;8.40;;;;;;;1.83;65.81;100679.61;1636628;85;21145;-63
2023/04/10 03:09:16;;;;;;;7.55;6.65;;;;;;;1.81;65.99;100681.30;1641415;85;21014;-65
2023/04/10 03:11:42;;;;;;;8.40;7.15;;;;;;;1.81;65.77;100683.88;1643949;85;21014;-65
2023/04/10 03:14:09;;;;;;;9.25;7.45;;;;;;;1.77;65.87;100683.45;1651458;85;21009;-64
2023/04/10 03:16:37;;;;;;;8.08;6.83;;;;;;;1.82;66.19;100684.73;1638386;85;21018;-64
2023/04/10 03:19:04;;;;;;;8.58;7.40;;;;;;;1.84;66.32;100677.45;1645821;85;21066;-66
2023/04/10 03:21:30;;;;;;;7.47;6.05;;;;;;;1.91;66.43;100675.77;1639848;85;21082;-65
2023/04/10 03:23:57;;;;;;;7.80;6.75;;;;;;;1.97;66.54;100675.36;1638514;85;20996;-63
2023/04/10 03:26:24;;;;;;;9.28;6.50;;;;;;;2.01;66.50;100673.20;1643442;85;21014;-66
2023/04/10 03:28:51;;;;;;;7.58;6.75;;;;;;;2.03;66.47;100671.94;1645103;85;21019;-63
2023/04/10 03:31:19;;;;;;;10.48;7.83;;;;;;;2.07;66.49;100675.38;1639589;85;21020;-64
2023/04/10 03:33:45;;;;;;;10.03;8.73;;;;;;;2.10;66.59;100674.09;1643173;85;21030;-64
2023/04/10 03:36:11;;;;;;;9.85;8.25;;;;;;;2.07;66.47;100670.22;1644722;85;20998;-65
2023/04/10 03:38:38;;;;;;;11.15;8.75;;;;;;;2.11;66.64;100672.82;1644600;85;21062;-63
2023/04/10 03:41:08;;;;;;;11.57;9.20;;;;;;;2.13;66.53;100677.96;1643980;85;21604;-65
2023/04/10 03:43:39;;;;;;;12.93;8.50;;;;;;;2.09;66.46;100673.67;1640269;85;21032;-63
2023/04/10 03:46:06;;;;;;;12.90;9.23;;;;;;;2.03;66.43;100665.93;1642660;85;20982;-63
2023/04/10 03:48:32;;;;;;;8.63;7.17;;;;;;;1.95;66.52;100673.20;1646868;84;20994;-64
2023/04/10 03:51:01;;;;;;;8.60;6.92;;;;;;;1.83;66.38;100669.30;1642213;85;21695;-63
2023/04/10 03:53:34;;;;;;;10.93;7.70;;;;;;;1.78;66.77;100674.42;1644327;85;20971;-64
2023/04/10 03:55:56;;;;;;;8.58;7.10;;;;;;;1.75;66.88;100675.70;1641847;85;21051;-64
2023/04/10 03:58:22;;;;;;;8.50;6.97;;;;;;;1.77;67.02;100679.59;1642322;85;21019;-64
2023/04/10 04:00:48;;;;;;;7.30;6.55;;;;;;;1.80;67.05;100677.02;1647550;85;21045;-64
2023/04/10 04:03:15;;;;;;;7.55;6.53;;;;;;;1.75;66.79;100678.71;1645487;85;21073;-64
2023/04/10 04:05:41;;;;;;;9.07;7.80;;;;;;;1.69;66.90;100674.39;1646144;85;21011;-67
2023/04/10 04:08:08;;;;;;;7.47;6.53;;;;;;;1.70;67.02;100674.82;1646440;85;21710;-63
2023/04/10 04:10:34;;;;;;;6.37;5.62;;;;;;;1.67;67.00;100678.67;1644129;85;21545;-66
2023/04/10 04:13:02;;;;;;;6.67;5.75;;;;;;;1.65;67.01;100676.94;1642553;85;21366;-64
2023/04/10 04:15:28;;;;;;;7.87;6.37;;;;;;;1.60;67.01;100683.78;1647108;84;21612;-66
2023/04/10 04:18:01;;;;;;;7.95;6.70;;;;;;;1.56;66.98;100686.77;1645078;85;21108;-64
2023/04/10 04:20:26;;;;;;;9.50;6.60;;;;;;;1.52;67.14;100687.19;1641425;85;21513;-68
2023/04/10 04:22:54;;;;;;;6.50;5.67;;;;;;;1.47;67.11;100685.02;1644929;85;21600;-63
2023/04/10 04:25:21;;;;;;;6.58;5.87;;;;;;;1.46;67.14;100691.45;1642433;85;21048;-62
2023/04/10 04:27:50;;;;;;;6.93;6.07;;;;;;;1.44;67.09;100690.15;1642445;85;21643;-65
2023/04/10 04:30:15;;;;;;;7.67;6.15;;;;;;;1.43;67.17;100688.44;1645520;85;21058;-62
2023/04/10 04:32:42;;;;;;;6.78;5.47;;;;;;;1.44;67.24;100692.72;1638926;85;21534;-63
2023/04/10 04:35:09;;;;;;;7.42;6.60;;;;;;;1.46;67.34;100691.03;1645958;85;21047;-64
2023/04/10 04:37:35;;;;;;;6.95;5.40;;;;;;;1.47;67.20;100694.02;1638360;85;21054;-65
2023/04/10 04:40:01;;;;;;;7.20;5.80;;;;;;;1.51;67.38;100690.63;1642212;85;21130;-64
2023/04/10 04:42:28;;;;;;;7.47;6.23;;;;;;;1.59;67.39;100700.09;1645822;85;21045;-65
2023/04/10 04:44:54;;;;;;;9.43;6.17;;;;;;;1.56;67.23;100704.36;1641623;85;21019;-63
2023/04/10 04:47:23;;;;;;;7.90;5.87;;;;;;;1.58;67.42;100708.67;1641960;85;21097;-64
2023/04/10 04:49:49;;;;;;;6.85;5.30;;;;;;;1.69;67.54;100708.30;1643059;85;20997;-64
2023/04/10 04:52:15;;;;;;;6.62;5.87;;;;;;;1.74;67.40;100710.47;1643596;85;21521;-64
2023/04/10 04:54:41;;;;;;;7.28;5.78;;;;;;;1.82;67.51;100713.95;1646962;85;21922;-64
2023/04/10 04:57:08;;;;;;;6.45;5.60;;;;;;;1.87;67.49;100719.09;1644622;85;20966;-65
2023/04/10 04:59:34;;;;;;;6.43;5.80;;;;;;;1.92;67.60;100718.26;1645947;85;21014;-66
2023/04/10 05:02:06;;;;;;;7.67;6.00;;;;;;;2.01;67.57;100720.86;1619750;85;21057;-64
2023/04/10 05:04:32;;;;;;;7.92;6.80;;;;;;;2.15;67.64;100722.63;1646093;84;21014;-67
2023/04/10 05:06:58;;;;;;;8.65;7.03;;;;;;;2.27;67.52;100722.69;1645497;85;21092;-64
2023/04/10 05:09:24;;;;;;;11.00;8.15;;;;;;;2.38;67.57;100721.00;1649893;85;22065;-62
2023/04/10 05:11:53;;;;;;;10.73;7.23;;;;;;;2.51;67.66;100722.30;1644627;85;21066;-63
2023/04/10 05:14:21;;;;;;;14.47;8.80;;;;;;;2.57;67.66;100716.70;1648121;85;21735;-62
2023/04/10 05:16:49;;;;;;;14.20;8.95;;;;;;;2.75;67.90;100715.03;1645260;85;21037;-64
2023/04/10 05:19:15;;;;;;;10.43;7.70;;;;;;;2.95;67.84;100717.61;1647085;85;20982;-63
2023/04/10 05:21:42;;;;;;;11.80;8.28;;;;;;;3.04;67.55;100721.47;1643477;85;20970;-63
2023/04/10 05:24:10;;;;;;;10.58;8.63;;;;;;;3.13;67.50;100726.61;1643706;85;21070;-64
2023/04/10 05:26:40;;;;;;;11.28;8.25;;;;;;;3.20;67.63;100727.05;1621548;85;21994;-62
2023/04/10 05:29:09;;;;;;;12.23;8.73;;;;;;;3.27;67.58;100728.75;1645295;85;21572;-64
2023/04/10 05:31:35;;;;;;;13.62;9.20;;;;;;;3.35;67.79;100730.89;1644914;85;21508;-66
2023/04/10 05:34:02;;;;;;;10.98;8.25;;;;;;;3.35;67.79;100730.89;1645338;85;20975;-64
2023/04/10 05:36:34;;;;;;;10.95;8.80;;;;;;;3.45;67.85;100727.02;1604183;85;21406;-64
2023/04/10 05:39:05;;;;;;;11.88;8.50;;;;;;;3.62;67.94;100730.41;1645641;85;21013;-65
2023/04/10 05:41:31;;;;;;;12.75;9.80;;;;;;;3.77;67.84;100727.77;1641807;85;21498;-65
2023/04/10 05:43:59;;;;;;;12.68;10.25;;;;;;;3.92;67.99;100725.99;1640123;85;20999;-65
2023/04/10 05:46:26;;;;;;;11.65;9.18;;;;;;;4.14;68.09;100721.59;1642716;85;21086;-64
2023/04/10 05:48:55;;;;;;;14.47;9.53;;;;;;;4.32;67.96;100723.23;1647711;85;21581;-62
2023/04/10 05:51:20;;;;;;;12.18;8.88;;;;;;;4.43;67.88;100726.62;1644568;85;21059;-63
2023/04/10 05:53:47;;;;;;;11.78;9.30;;;;;;;4.58;68.11;100726.51;1644995;85;21458;-62
2023/04/10 05:56:14;;;;;;;10.18;7.92;;;;;;;4.78;68.10;100718.60;1648513;85;21105;-64
2023/04/10 05:58:40;;;;;;;11.48;9.03;;;;;;;4.93;68.09;100720.23;1650712;85;21026;-63
2023/04/10 06:01:06;;;;;;;10.82;7.05;;;;;;;5.11;68.17;100726.53;1645143;85;21072;-64
2023/04/10 06:03:38;;;;;;;10.58;7.97;;;;;;;5.32;68.22;100720.72;1643025;85;21057;-64
2023/04/10 06:06:04;;;;;;;11.12;8.23;;;;;;;5.54;68.32;100722.22;1647583;85;21003;-63
2023/04/10 06:08:34;;;;;;;14.80;8.78;;;;;;;5.79;68.28;100723.25;1644452;85;21064;-65
2023/04/10 06:11:05;;;;;;;11.20;8.03;;;;;;;5.98;68.28;100723.48;1624916;85;20991;-65
2023/04/10 06:13:31;;;;;;;10.58;7.33;;;;;;;6.21;68.22;100722.33;1648107;85;21612;-64
2023/04/10 06:15:57;;;;;;;11.55;7.15;;;;;;;6.40;68.35;100726.38;1647622;85;21047;-63
2023/04/10 06:18:24;;;;;;;9.88;7.12;;;;;;;6.66;68.53;100723.39;1647992;85;21030;-64
2023/04/10 06:20:55;;;;;;;10.85;7.53;;;;;;;6.90;68.48;100722.62;1649154;85;21473;-64
2023/04/10 06:23:21;;;;;;;9.25;7.17;;;;;;;7.12;68.48;100723.12;1649385;85;21136;-65
2023/04/10 06:25:47;;;;;;;9.65;7.25;;;;;;;7.40;68.54;100716.99;1642902;85;21023;-63
2023/04/10 06:28:14;;;;;;;9.50;7.10;;;;;;;7.72;68.58;100722.02;1647608;84;21568;-64
2023/04/10 06:30:42;;;;;;;9.53;6.78;;;;;;;7.97;68.61;100718.48;1643429;85;21450;-64
2023/04/10 06:33:13;;;;;;;8.35;5.95;;;;;;;8.33;68.49;100723.80;1647935;85;20995;-64
2023/04/10 06:35:41;;;;;;;7.40;5.33;;;;;;;8.63;68.70;100720.98;1646051;85;20997;-63
2023/04/10 06:38:11;;;;;;;9.38;5.42;;;;;;;8.94;68.57;100725.86;1626930;85;21082;-63
2023/04/10 06:40:37;;;;;;;7.62;5.35;;;;;;;9.22;68.40;100724.33;1647517;85;21067;-63
2023/04/10 06:43:03;;;;;;;6.92;5.65;;;;;;;9.50;68.43;100725.30;1640390;85;21006;-62
2023/04/10 06:45:31;;;;;;;7.72;5.42;;;;;;;9.79;68.23;100717.12;1644950;85;21033;-62
2023/04/10 06:47:58;;;;;;;6.05;4.28;;;;;;;10.05;68.24;100718.55;1643410;85;20952;-63
2023/04/10 06:50:27;;;;;;;5.58;4.08;;;;;;;10.38;68.12;100714.55;1646197;85;21022;-65
2023/04/10 06:52:54;;;;;;;7.45;4.65;;;;;;;11.01;67.56;100711.25;1646847;85;21019;-64
2023/04/10 06:55:21;;;;;;;5.03;3.58;;;;;;;11.01;67.56;100711.25;1644696;85;21007;-66
2023/04/10 06:57:48;;;;;;;6.70;4.03;;;;;;;11.35;67.98;100714.87;1646855;85;21542;-63
2023/04/10 07:00:15;;;;;;;5.70;4.23;;;;;;;11.83;67.96;100710.56;1651287;87;21497;-62
2023/04/10 07:02:41;;;;;;;4.92;3.70;;;;;;;12.37;67.74;100708.56;1649770;85;21007;-63
2023/04/10 07:05:09;;;;;;;7.90;4.92;;;;;;;12.79;67.42;100706.00;1641470;85;21043;-62
2023/04/10 07:07:36;;;;;;;8.18;5.17;;;;;;;13.23;67.38;100710.32;1649691;85;21034;-60
2023/04/10 07:10:05;;;;;;;9.10;5.30;;;;;;;13.80;67.41;100700.84;1646995;85;21105;-63
2023/04/10 07:12:35;;;;;;;13.93;6.97;;;;;;;14.41;67.17;100703.26;1647794;85;21049;-62
2023/04/10 07:15:04;;;;;;;7.87;5.42;;;;;;;14.99;66.86;100691.25;1645976;85;21019;-62
2023/04/10 07:17:37;;;;;;;8.20;6.62;;;;;;;15.32;66.27;100691.79;1649964;84;21092;-61
2023/04/10 07:20:04;;;;;;;8.10;5.72;;;;;;;16.00;66.91;100693.52;1623295;87;20995;-60
2023/04/10 07:22:34;;;;;;;6.12;4.83;;;;;;;16.70;66.25;100687.41;1645758;85;21073;-60
2023/04/10 07:25:01;;;;;;;6.22;4.60;;;;;;;17.31;65.50;100688.24;1646486;85;21612;-62
2023/04/10 07:27:34;;;;;;;6.35;4.62;;;;;;;17.37;64.22;100682.62;1633297;85;21026;-60
2023/04/10 07:30:02;;;;;;;6.45;4.70;;;;;;;17.22;62.79;100685.25;1647741;85;20979;-61
2023/04/10 07:32:28;;;;;;;4.92;3.80;;;;;;;17.64;64.53;100683.59;1648225;85;21049;-61
2023/04/10 07:34:54;;;;;;;6.42;4.28;;;;;;;18.33;63.61;100675.77;1642487;85;21019;-61
2023/04/10 07:37:23;;;;;;;6.10;4.20;;;;;;;19.03;64.00;100675.59;1644115;85;21359;-60
2023/04/10 07:39:49;;;;;;;6.60;4.35;;;;;;;19.73;61.74;100680.52;1647331;85;21109;-61
2023/04/10 07:42:17;;;;;;;7.58;4.90;;;;;;;20.42;62.73;100681.36;1644978;85;20983;-60
2023/04/10 07:44:43;;;;;;;8.13;5.42;;;;;;;20.86;62.21;100678.55;1647771;85;21314;-60
2023/04/10 07:47:10;;;;;;;5.67;3.75;;;;;;;21.62;61.42;100670.52;1641799;85;21616;-61
2023/04/10 07:49:36;;;;;;;;;;;;;;;22.14;60.87;100670.36;1645534;85;21050;-61
2023/04/10 07:52:02;;;;;;;3.90;2.67;;;;;;;22.47;57.25;100673.95;1648107;85;20435;-61
2023/04/10 07:54:32;;;;;;;3.72;2.98;;;;;;;22.58;57.91;100673.08;1648051;85;21058;-61
2023/04/10 07:56:59;;;;;;;2.75;2.10;;;;;;;23.16;59.34;100673.52;1648946;85;21577;-63
2023/04/10 07:59:27;;;;;;;3.25;2.50;;;;;;;24.24;58.58;100663.19;1628501;85;21564;-61
2023/04/10 08:01:54;;;;;;;4.35;2.60;;;;;;;25.08;58.06;100661.32;1632972;86;21028;-62
2023/04/10 08:04:22;;;;;;;3.05;1.92;;;;;;;25.70;56.61;100654.20;1644695;85;21540;-62
2023/04/10 08:06:50;;;;;;;4.15;1.82;;;;;;;26.35;55.07;100654.96;1642866;85;21038;-62
2023/04/10 08:09:17;;;;;;;2.35;1.82;;;;;;;27.15;55.66;100646.96;1640220;85;21085;-62
2023/04/10 08:11:45;;;;;;;2.92;1.65;;;;;;;28.19;55.00;100648.14;1642062;85;21069;-61
2023/04/10 08:14:12;;;;;;;4.15;1.85;;;;;;;29.00;53.94;100651.41;1636553;85;21045;-62
2023/04/10 08:16:38;;;;;;;2.35;1.55;;;;;;;29.32;52.26;100646.16;1642214;85;21054;-62
2023/04/10 08:19:05;;;;;;;2.95;1.72;;;;;;;29.91;52.37;100642.59;1642320;85;21010;-62
2023/04/10 08:21:31;;;;;;;3.25;1.30;;;;;;;29.90;49.94;100642.28;1644324;85;21027;-61
2023/04/10 08:24:02;;;;;;;3.15;1.70;;;;;;;29.97;49.54;100641.92;1635495;85;21025;-61
2023/04/10 08:26:33;;;;;;;2.90;2.08;;;;;;;30.78;49.46;100641.02;1647668;85;21548;-62
2023/04/10 08:29:05;;;;;;;2.70;2.10;;;;;;;31.91;48.34;100636.47;1651625;85;21062;-61
2023/04/10 08:31:37;;;;;;;2.08;1.87;;;;;;;32.39;47.50;100634.09;1647967;85;21683;-62
2023/04/10 08:34:03;;;;;;;4.20;2.70;;;;;;;33.31;46.59;100635.92;1656216;85;21672;-62
2023/04/10 08:36:30;;;;;;;4.58;2.47;;;;;;;34.19;45.60;100629.34;1657285;85;21030;-61
2023/04/10 08:38:59;;;;;;;4.15;2.17;;;;;;;34.52;44.34;100623.44;1649157;85;21034;-61
2023/04/10 08:41:31;;;;;;;3.47;2.50;;;;;;;35.16;43.80;100626.59;1632319;85;21149;-62
2023/04/10 08:43:56;;;;;;;8.48;3.05;;;;;;;35.28;42.16;100615.91;1652966;85;21569;-61
2023/04/10 08:46:31;;;;;;;6.47;2.98;;;;;;;35.90;41.85;100614.95;1651691;85;21791;-62
2023/04/10 08:49:01;;;;;;;;;;;;;;;35.73;39.61;100613.25;1651690;85;21010;-62
2023/04/10 08:51:33;;;;;;;3.27;2.15;;;;;;;35.72;37.04;100609.71;1654122;85;20212;-62
2023/04/10 08:54:13;;;;;;;2.67;1.50;;;;;;;36.63;38.47;100611.23;1644156;84;20992;-63
2023/04/10 08:56:44;;;;;;;3.37;1.70;;;;;;;36.79;36.84;100611.21;1645365;84;21618;-62
2023/04/10 08:59:12;;;;;;;3.98;1.77;;;;;;;36.02;36.41;100607.75;1670980;84;20993;-61
2023/04/10 09:01:40;;;;;;;2.62;1.82;;;;;;;36.70;35.46;100606.59;1672669;84;21592;-62
2023/04/10 09:04:06;;;;;;;2.75;1.80;;;;;;;36.55;34.68;100601.17;1668713;83;21773;-62
2023/04/10 09:06:33;;;;;;;3.67;2.20;;;;;;;36.70;34.27;100601.14;1669940;84;21010;-62
2023/04/10 09:08:59;;;;;;;2.40;1.65;;;;;;;37.29;33.44;100607.06;1668367;84;21021;-62
2023/04/10 09:11:46;;;;;;;4.20;2.10;;;;;;;37.90;32.79;100599.82;1672205;84;21100;-62
2023/04/10 09:14:24;;;;;;;3.67;1.80;;;;;;;38.77;32.37;100596.59;1667634;84;21029;-62
2023/04/10 09:16:53;;;;;;;3.33;1.90;;;;;;;39.46;30.96;100598.67;1670698;84;21156;-62
2023/04/10 09:19:33;;;;;;;4.00;1.80;;;;;;;39.94;30.61;100600.16;1669220;84;21020;-62
2023/04/10 09:22:01;;;;;;;2.12;1.62;;;;;;;40.26;29.72;100597.77;1667540;84;21041;-62
2023/04/10 09:24:27;;;;;;;3.47;2.00;;;;;;;40.36;28.61;100599.83;1661855;84;21009;-62
2023/04/10 09:26:55;;;;;;;2.08;1.42;;;;;;;40.36;27.68;100588.88;1656456;84;21101;-62
2023/04/10 09:29:26;;;;;;;1.62;1.22;;;;;;;40.24;26.80;100592.53;1658039;84;21078;-63
2023/04/10 09:31:52;;;;;;;1.55;1.30;;;;;;;40.51;26.43;100591.88;1661524;84;20992;-62
2023/04/10 09:34:22;;;;;;;2.08;1.45;;;;;;;40.65;25.57;100590.48;1664997;84;21071;-62
2023/04/10 09:36:54;;;;;;;3.12;1.40;;;;;;;40.31;24.86;100580.62;1661817;84;21029;-63
2023/04/10 09:39:45;;;;;;;1.65;0.93;;;;;;;39.53;24.64;100582.98;1657899;84;21045;-62
2023/04/10 09:42:11;;;;;;;1.65;1.27;;;;;;;40.09;24.25;100581.31;1656900;84;21108;-63
2023/04/10 09:44:40;;;;;;;2.22;1.17;;;;;;;40.64;23.55;100581.99;1662455;84;20993;-62
2023/04/10 09:47:17;;;;;;;1.40;1.20;;;;;;;41.17;23.29;100572.87;1660578;84;21030;-62
2023/04/10 09:49:52;;;;;;;1.30;1.10;;;;;;;41.25;22.94;100566.12;1661581;84;20958;-62
2023/04/10 09:52:25;;;;;;;;;;;;;;;41.62;22.49;100561.35;1664168;84;20974;-61
2023/04/10 09:55:03;;;;;;;1.80;1.30;;;;;;;42.44;20.65;100554.19;1663001;84;20150;-61
2023/04/10 09:57:31;;;;;;;2.77;1.52;;;;;;;42.99;21.18;100553.97;1658813;84;21247;-62
2023/04/10 10:00:07;;;;;;;1.32;1.15;;;;;;;42.81;21.02;100547.84;1661149;84;21523;-62
2023/04/10 10:02:37;;;;;;;3.87;1.22;;;;;;;43.39;20.53;100551.11;1661622;84;21109;-62
2023/04/10 10:05:07;;;;;;;1.80;1.50;;;;;;;43.71;20.49;100547.64;1659759;84;21622;-62
2023/04/10 10:07:34;;;;;;;4.28;1.77;;;;;;;43.34;19.80;100550.02;1657782;84;21543;-61
2023/04/10 10:10:02;;;;;;;2.05;1.40;;;;;;;43.19;19.37;100545.86;1663550;84;21803;-62
2023/04/10 10:12:40;;;;;;;1.67;1.30;;;;;;;43.30;19.21;100543.42;1645045;85;21061;-62
2023/04/10 10:15:12;;;;;;;2.33;1.57;;;;;;;43.58;18.78;100539.91;1638298;85;21052;-62
2023/04/10 10:17:44;;;;;;;2.15;1.50;;;;;;;44.05;18.50;100534.75;1641544;85;21699;-61
2023/04/10 10:20:14;;;;;;;2.00;1.32;;;;;;;44.48;18.22;100535.30;1607816;87;21075;-61
2023/04/10 10:22:45;;;;;;;2.90;1.50;;;;;;;43.99;17.94;100528.98;1610858;87;21512;-62
2023/04/10 10:25:12;;;;;;;1.60;1.27;;;;;;;44.23;17.32;100532.83;1627381;86;21088;-61
2023/04/10 10:27:40;;;;;;;1.75;1.20;;;;;;;44.54;17.26;100532.80;1623804;87;21108;-61
2023/04/10 10:30:11;;;;;;;1.80;1.30;;;;;;;44.84;16.92;100533.30;1634337;86;21112;-60
2023/04/10 10:32:39;;;;;;;2.12;1.57;;;;;;;44.72;16.54;100534.67;1637249;86;21052;-60
2023/04/10 10:35:09;;;;;;;3.08;1.35;;;;;;;44.88;16.42;100526.66;1611608;87;21658;-60
2023/04/10 10:37:36;;;;;;;2.22;1.57;;;;;;;45.17;16.21;100520.49;1637044;86;21091;-63
2023/04/10 10:40:26;;;;;;;2.17;1.60;;;;;;;45.10;15.59;100520.22;1634975;86;20991;-61
2023/04/10 10:43:12;;;;;;;3.08;1.62;;;;;;;44.75;15.24;100523.12;1636211;86;21049;-60
2023/04/10 10:45:57;;;;;;;3.60;1.70;;;;;;;43.00;15.17;100515.80;1637573;86;21536;-61
2023/04/10 10:48:24;;;;;;;6.45;5.85;;;;;;;43.12;15.49;100506.77;1633740;86;21164;-61
2023/04/10 10:51:01;;;;;;;2.62;2.42;;;;;;;44.26;15.21;100505.86;1631636;86;21212;-60
2023/04/10 10:53:37;;;;;;;3.02;1.87;;;;;;;44.86;15.03;100506.83;1633865;86;21014;-61
2023/04/10 10:56:25;;;;;;;3.50;1.50;;;;;;;45.00;14.86;100499.59;1635528;87;21477;-64
2023/04/10 10:58:56;;;;;;;1.80;1.37;;;;;;;45.39;14.60;100504.37;1627266;86;20973;-63
2023/04/10 11:01:25;;;;;;;1.90;1.65;;;;;;;45.60;14.62;100495.97;1632767;86;21135;-64
2023/04/10 11:03:51;;;;;;;1.60;1.35;;;;;;;46.12;14.38;100488.94;1646159;86;20987;-64
2023/04/10 11:06:23;;;;;;;2.20;1.60;;;;;;;45.33;14.22;100486.22;1645111;85;21020;-64
2023/04/10 11:08:54;;;;;;;3.47;1.80;;;;;;;45.09;14.13;100488.23;1641168;86;21013;-64
2023/04/10 11:11:24;;;;;;;1.92;1.50;;;;;;;44.68;13.98;100491.73;1650353;85;21055;-62
2023/04/10 11:13:58;;;;;;;2.45;1.65;;;;;;;44.88;14.09;100485.34;1640012;85;20984;-62
2023/04/10 11:16:25;;;;;;;2.50;2.30;;;;;;;45.36;13.42;100473.23;1650733;85;21026;-61
2023/04/10 11:18:56;;;;;;;3.58;1.62;;;;;;;44.52;13.53;100479.94;1639653;86;21094;-60
2023/04/10 11:21:23;;;;;;;1.82;1.40;;;;;;;44.79;13.53;100478.22;1638959;85;21607;-61
2023/04/10 11:23:56;;;;;;;5.25;1.60;;;;;;;44.96;13.30;100475.11;1647308;85;20951;-61
2023/04/10 11:26:38;;;;;;;1.82;1.50;;;;;;;44.68;12.92;100472.45;1639710;85;21011;-64
2023/04/10 11:29:07;;;;;;;1.90;1.17;;;;;;;42.44;12.85;100470.47;1645160;85;21028;-61
2023/04/10 11:31:33;;;;;;;2.27;1.12;;;;;;;42.93;12.59;100461.66;1644771;85;21025;-64
2023/04/10 11:34:06;;;;;;;2.60;1.27;;;;;;;42.78;12.43;100463.25;1643358;85;21153;-63
2023/04/10 11:36:35;;;;;;;3.30;1.50;;;;;;;42.90;12.49;100458.34;1622333;87;21129;-61